sensor_id;sensor_type;location;lat;lon;timestamp;temperature;humidity
16999;DHT22;10211;49.476;11.010;2023-02-28T00:00:09;-3.30;99.90
16999;DHT22;10211;49.476;11.010;2023-02-28T00:02:37;-3.40;99.90
16999;DHT22;10211;49.476;11.010;2023-02-28T00:05:04;-3.30;99.90
16999;DHT22;10211;49.476;11.010;2023-02-28T00:07:32;-3.30;99.90
16999;DHT22;10211;49.476;11.010;2023-02-28T00:09:59;-3.30;99.90
16999;DHT22;10211;49.476;11.010;2023-02-28T00:12:26;-3.20;99.90
16999;DHT22;10211;49.476;11.010;2023-02-28T00:14:54;-3.20;99.90
16999;DHT22;10211;49.476;11.010;2023-02-28T00:17:21;-3.10;99.90
16999;DHT22;10211;49.476;11.010;2023-02-28T00:19:48;-3.10;99.90
16999;DHT22;10211;49.476;11.010;2023-02-28T00:22:15;-3.10;99.90
16999;DHT22;10211;49.476;11.010;2023-02-28T00:24:42;-3.00;99.90
16999;DHT22;10211;49.476;11.010;2023-02-28T00:27:10;-3.00;99.90
16999;DHT22;10211;49.476;11.010;2023-02-28T00:29:37;-3.00;99.90
16999;DHT22;10211;49.476;11.010;2023-02-28T00:32:06;-2.90;99.90
16999;DHT22;10211;49.476;11.010;2023-02-28T00:34:33;-2.80;99.90
16999;DHT22;10211;49.476;11.010;2023-02-28T00:37:03;-2.70;99.90
16999;DHT22;10211;49.476;11.010;2023-02-28T00:39:30;-2.70;99.90
16999;DHT22;10211;49.476;11.010;2023-02-28T00:41:57;-2.70;99.90
16999;DHT22;10211;49.476;11.010;2023-02-28T00:44:23;-2.70;99.90
16999;DHT22;10211;49.476;11.010;2023-02-28T00:46:50;-2.70;99.90
16999;DHT22;10211;49.476;11.010;2023-02-28T00:49:21;-2.80;99.90
16999;DHT22;10211;49.476;11.010;2023-02-28T00:51:48;-2.70;99.90
16999;DHT22;10211;49.476;11.010;2023-02-28T00:54:14;-2.70;99.90
16999;DHT22;10211;49.476;11.010;2023-02-28T00:56:41;-2.60;99.90
16999;DHT22;10211;49.476;11.010;2023-02-28T00:59:08;-2.70;99.90
16999;DHT22;10211;49.476;11.010;2023-02-28T01:01:35;-2.70;99.90
16999;DHT22;10211;49.476;11.010;2023-02-28T01:04:02;-2.70;99.90
16999;DHT22;10211;49.476;11.010;2023-02-28T01:06:30;-2.60;99.90
16999;DHT22;10211;49.476;11.010;2023-02-28T01:08:57;-2.60;99.90
16999;DHT22;10211;49.476;11.010;2023-02-28T01:11:24;-2.60;99.90
16999;DHT22;10211;49.476;11.010;2023-02-28T01:13:51;-2.60;99.90
16999;DHT22;10211;49.476;11.010;2023-02-28T01:16:18;-2.50;99.90
16999;DHT22;10211;49.476;11.010;2023-02-28T01:18:44;-2.50;99.90
16999;DHT22;10211;49.476;11.010;2023-02-28T01:21:15;-2.50;99.90
16999;DHT22;10211;49.476;11.010;2023-02-28T01:23:43;-2.50;99.90
16999;DHT22;10211;49.476;11.010;2023-02-28T01:26:12;-2.50;99.90
16999;DHT22;10211;49.476;11.010;2023-02-28T01:28:39;-2.50;99.90
16999;DHT22;10211;49.476;11.010;2023-02-28T01:31:07;-2.50;99.90
16999;DHT22;10211;49.476;11.010;2023-02-28T01:33:35;-2.50;99.90
16999;DHT22;10211;49.476;11.010;2023-02-28T01:36:03;-2.50;99.90
16999;DHT22;10211;49.476;11.010;2023-02-28T01:38:31;-2.40;99.90
16999;DHT22;10211;49.476;11.010;2023-02-28T01:40:59;-2.40;99.90
16999;DHT22;10211;49.476;11.010;2023-02-28T01:43:28;-2.40;99.90
16999;DHT22;10211;49.476;11.010;2023-02-28T01:45:56;-2.40;99.90
16999;DHT22;10211;49.476;11.010;2023-02-28T01:48:27;-2.40;99.90
16999;DHT22;10211;49.476;11.010;2023-02-28T01:51:13;-2.40;99.90
16999;DHT22;10211;49.476;11.010;2023-02-28T01:53:44;-2.40;99.90
16999;DHT22;10211;49.476;11.010;2023-02-28T01:56:17;-2.40;99.90
16999;DHT22;10211;49.476;11.010;2023-02-28T01:58:49;-2.50;99.90
16999;DHT22;10211;49.476;11.010;2023-02-28T02:01:16;-2.40;99.90
16999;DHT22;10211;49.476;11.010;2023-02-28T02:03:47;-2.50;99.90
16999;DHT22;10211;49.476;11.010;2023-02-28T02:06:21;-2.50;99.90
16999;DHT22;10211;49.476;11.010;2023-02-28T02:08:48;-2.50;99.90
16999;DHT22;10211;49.476;11.010;2023-02-28T02:11:20;-2.50;99.90
16999;DHT22;10211;49.476;11.010;2023-02-28T02:14:08;-2.50;99.90
16999;DHT22;10211;49.476;11.010;2023-02-28T02:16:49;-2.50;99.90
16999;DHT22;10211;49.476;11.010;2023-02-28T02:19:37;-2.60;99.90
16999;DHT22;10211;49.476;11.010;2023-02-28T02:22:32;-2.60;99.90
16999;DHT22;10211;49.476;11.010;2023-02-28T02:25:19;-2.70;99.90
16999;DHT22;10211;49.476;11.010;2023-02-28T02:28:22;-2.60;99.90
16999;DHT22;10211;49.476;11.010;2023-02-28T02:34:18;-2.70;99.90
16999;DHT22;10211;49.476;11.010;2023-02-28T02:36:53;-2.70;99.90
16999;DHT22;10211;49.476;11.010;2023-02-28T02:39:30;-2.70;99.90
16999;DHT22;10211;49.476;11.010;2023-02-28T02:42:01;-2.70;99.90
16999;DHT22;10211;49.476;11.010;2023-02-28T02:44:31;-2.60;99.90
16999;DHT22;10211;49.476;11.010;2023-02-28T02:47:03;-2.70;99.90
16999;DHT22;10211;49.476;11.010;2023-02-28T02:49:35;-2.40;99.90
16999;DHT22;10211;49.476;11.010;2023-02-28T02:52:04;-2.60;99.90
16999;DHT22;10211;49.476;11.010;2023-02-28T02:54:34;-2.60;99.90
16999;DHT22;10211;49.476;11.010;2023-02-28T02:57:04;-2.60;99.90
16999;DHT22;10211;49.476;11.010;2023-02-28T02:59:35;-2.60;99.90
16999;DHT22;10211;49.476;11.010;2023-02-28T03:02:04;-2.60;99.90
16999;DHT22;10211;49.476;11.010;2023-02-28T03:04:38;-2.60;99.90
16999;DHT22;10211;49.476;11.010;2023-02-28T03:07:06;-2.60;99.90
16999;DHT22;10211;49.476;11.010;2023-02-28T03:09:34;-2.60;99.90
16999;DHT22;10211;49.476;11.010;2023-02-28T03:12:01;-2.60;99.90
16999;DHT22;10211;49.476;11.010;2023-02-28T03:14:39;-2.60;99.90
16999;DHT22;10211;49.476;11.010;2023-02-28T03:17:25;-2.60;99.90
16999;DHT22;10211;49.476;11.010;2023-02-28T03:20:06;-2.60;99.90
16999;DHT22;10211;49.476;11.010;2023-02-28T03:22:57;-2.60;99.90
16999;DHT22;10211;49.476;11.010;2023-02-28T03:25:32;-2.60;99.90
16999;DHT22;10211;49.476;11.010;2023-02-28T03:28:06;-2.70;99.90
16999;DHT22;10211;49.476;11.010;2023-02-28T03:30:43;-2.60;99.90
16999;DHT22;10211;49.476;11.010;2023-02-28T03:33:16;-2.70;99.90
16999;DHT22;10211;49.476;11.010;2023-02-28T03:35:50;-2.70;99.90
16999;DHT22;10211;49.476;11.010;2023-02-28T03:38:23;-2.70;99.90
16999;DHT22;10211;49.476;11.010;2023-02-28T03:40:58;-2.80;99.90
16999;DHT22;10211;49.476;11.010;2023-02-28T03:43:29;-2.80;99.90
16999;DHT22;10211;49.476;11.010;2023-02-28T03:45:58;-2.80;99.90
16999;DHT22;10211;49.476;11.010;2023-02-28T03:48:31;-2.80;99.90
16999;DHT22;10211;49.476;11.010;2023-02-28T03:51:01;-2.80;99.90
16999;DHT22;10211;49.476;11.010;2023-02-28T03:53:32;-2.80;99.90
16999;DHT22;10211;49.476;11.010;2023-02-28T03:56:05;-2.80;99.90
16999;DHT22;10211;49.476;11.010;2023-02-28T03:58:38;-2.80;99.90
16999;DHT22;10211;49.476;11.010;2023-02-28T04:01:08;-2.80;99.90
16999;DHT22;10211;49.476;11.010;2023-02-28T04:03:37;-2.70;99.90
16999;DHT22;10211;49.476;11.010;2023-02-28T04:06:07;-2.70;99.90
16999;DHT22;10211;49.476;11.010;2023-02-28T04:08:34;-2.70;99.90
16999;DHT22;10211;49.476;11.010;2023-02-28T04:11:04;-2.80;99.90
16999;DHT22;10211;49.476;11.010;2023-02-28T04:13:33;-2.90;99.90
16999;DHT22;10211;49.476;11.010;2023-02-28T04:15:59;-2.80;99.90
16999;DHT22;10211;49.476;11.010;2023-02-28T04:18:26;-2.80;99.90
16999;DHT22;10211;49.476;11.010;2023-02-28T04:20:53;-2.80;99.90
16999;DHT22;10211;49.476;11.010;2023-02-28T04:23:21;-2.80;99.90
16999;DHT22;10211;49.476;11.010;2023-02-28T04:25:48;-2.80;99.90
16999;DHT22;10211;49.476;11.010;2023-02-28T04:28:16;-2.70;99.90
16999;DHT22;10211;49.476;11.010;2023-02-28T04:30:43;-2.80;99.90
16999;DHT22;10211;49.476;11.010;2023-02-28T04:33:09;-2.70;99.90
16999;DHT22;10211;49.476;11.010;2023-02-28T04:35:37;-2.80;99.90
16999;DHT22;10211;49.476;11.010;2023-02-28T04:38:03;-2.80;99.90
16999;DHT22;10211;49.476;11.010;2023-02-28T04:40:31;-2.80;99.90
16999;DHT22;10211;49.476;11.010;2023-02-28T04:42:58;-2.70;99.90
16999;DHT22;10211;49.476;11.010;2023-02-28T04:45:25;-2.80;99.90
16999;DHT22;10211;49.476;11.010;2023-02-28T04:47:52;-2.70;99.90
16999;DHT22;10211;49.476;11.010;2023-02-28T04:50:19;-2.80;99.90
16999;DHT22;10211;49.476;11.010;2023-02-28T04:52:45;-2.80;99.90
16999;DHT22;10211;49.476;11.010;2023-02-28T04:55:12;-2.90;99.90
16999;DHT22;10211;49.476;11.010;2023-02-28T04:57:40;-2.80;99.90
16999;DHT22;10211;49.476;11.010;2023-02-28T05:00:09;-2.80;99.90
16999;DHT22;10211;49.476;11.010;2023-02-28T05:02:37;-2.80;99.90
16999;DHT22;10211;49.476;11.010;2023-02-28T05:05:04;-2.90;99.90
16999;DHT22;10211;49.476;11.010;2023-02-28T05:07:31;-2.90;99.90
16999;DHT22;10211;49.476;11.010;2023-02-28T05:09:58;-2.90;99.90
16999;DHT22;10211;49.476;11.010;2023-02-28T05:12:25;-2.90;99.90
16999;DHT22;10211;49.476;11.010;2023-02-28T05:14:53;-2.90;99.90
16999;DHT22;10211;49.476;11.010;2023-02-28T05:17:19;-2.90;99.90
16999;DHT22;10211;49.476;11.010;2023-02-28T05:19:46;-2.90;99.90
16999;DHT22;10211;49.476;11.010;2023-02-28T05:22:14;-3.00;99.90
16999;DHT22;10211;49.476;11.010;2023-02-28T05:24:42;-3.00;99.90
16999;DHT22;10211;49.476;11.010;2023-02-28T05:27:08;-3.10;99.90
16999;DHT22;10211;49.476;11.010;2023-02-28T05:29:35;-3.10;99.90
16999;DHT22;10211;49.476;11.010;2023-02-28T05:32:09;-3.10;99.90
16999;DHT22;10211;49.476;11.010;2023-02-28T05:34:36;-3.10;99.90
16999;DHT22;10211;49.476;11.010;2023-02-28T05:37:03;-3.10;99.90
16999;DHT22;10211;49.476;11.010;2023-02-28T05:39:30;-3.00;99.90
16999;DHT22;10211;49.476;11.010;2023-02-28T05:41:57;-3.10;99.90
16999;DHT22;10211;49.476;11.010;2023-02-28T05:44:24;-3.10;99.90
16999;DHT22;10211;49.476;11.010;2023-02-28T05:46:51;-3.00;99.90
16999;DHT22;10211;49.476;11.010;2023-02-28T05:49:19;-3.00;99.90
16999;DHT22;10211;49.476;11.010;2023-02-28T05:51:47;-3.00;99.90
16999;DHT22;10211;49.476;11.010;2023-02-28T05:54:14;-3.00;99.90
16999;DHT22;10211;49.476;11.010;2023-02-28T05:56:40;-3.00;99.90
16999;DHT22;10211;49.476;11.010;2023-02-28T05:59:09;-3.00;99.90
16999;DHT22;10211;49.476;11.010;2023-02-28T06:01:38;-3.00;99.90
16999;DHT22;10211;49.476;11.010;2023-02-28T06:04:06;-3.00;99.90
16999;DHT22;10211;49.476;11.010;2023-02-28T06:06:36;-3.00;99.90
16999;DHT22;10211;49.476;11.010;2023-02-28T06:09:03;-3.00;99.90
16999;DHT22;10211;49.476;11.010;2023-02-28T06:11:30;-3.00;99.90
16999;DHT22;10211;49.476;11.010;2023-02-28T06:13:58;-2.90;99.90
16999;DHT22;10211;49.476;11.010;2023-02-28T06:16:26;-2.90;99.90
16999;DHT22;10211;49.476;11.010;2023-02-28T06:18:53;-2.90;99.90
16999;DHT22;10211;49.476;11.010;2023-02-28T06:21:21;-2.80;99.90
16999;DHT22;10211;49.476;11.010;2023-02-28T06:23:49;-2.80;99.90
16999;DHT22;10211;49.476;11.010;2023-02-28T06:26:16;-2.80;99.90
16999;DHT22;10211;49.476;11.010;2023-02-28T06:28:43;-2.80;99.90
16999;DHT22;10211;49.476;11.010;2023-02-28T06:31:12;-2.80;99.90
16999;DHT22;10211;49.476;11.010;2023-02-28T06:33:39;-2.70;99.90
16999;DHT22;10211;49.476;11.010;2023-02-28T06:36:08;-2.70;99.90
16999;DHT22;10211;49.476;11.010;2023-02-28T06:38:35;-2.60;99.90
16999;DHT22;10211;49.476;11.010;2023-02-28T06:41:04;-2.50;99.90
16999;DHT22;10211;49.476;11.010;2023-02-28T06:43:33;-2.50;99.90
16999;DHT22;10211;49.476;11.010;2023-02-28T06:46:01;-2.40;99.90
16999;DHT22;10211;49.476;11.010;2023-02-28T06:48:28;-2.20;99.90
16999;DHT22;10211;49.476;11.010;2023-02-28T06:51:01;-1.90;99.90
16999;DHT22;10211;49.476;11.010;2023-02-28T06:53:28;-1.50;99.90
16999;DHT22;10211;49.476;11.010;2023-02-28T06:55:55;-1.30;99.90
16999;DHT22;10211;49.476;11.010;2023-02-28T06:58:25;-0.70;99.90
16999;DHT22;10211;49.476;11.010;2023-02-28T07:00:52;-0.10;99.90
16999;DHT22;10211;49.476;11.010;2023-02-28T07:03:20;0.20;99.90
16999;DHT22;10211;49.476;11.010;2023-02-28T07:05:47;0.40;99.90
16999;DHT22;10211;49.476;11.010;2023-02-28T07:08:13;0.50;99.90
16999;DHT22;10211;49.476;11.010;2023-02-28T07:10:41;0.40;99.90
16999;DHT22;10211;49.476;11.010;2023-02-28T07:13:08;0.30;99.90
16999;DHT22;10211;49.476;11.010;2023-02-28T07:15:36;0.20;99.90
16999;DHT22;10211;49.476;11.010;2023-02-28T07:18:03;0.20;99.90
16999;DHT22;10211;49.476;11.010;2023-02-28T07:20:30;0.20;99.90
16999;DHT22;10211;49.476;11.010;2023-02-28T07:22:57;0.20;99.90
16999;DHT22;10211;49.476;11.010;2023-02-28T07:25:25;0.20;99.90
16999;DHT22;10211;49.476;11.010;2023-02-28T07:27:52;-0.10;99.90
16999;DHT22;10211;49.476;11.010;2023-02-28T07:30:19;-0.20;99.90
16999;DHT22;10211;49.476;11.010;2023-02-28T07:32:48;-0.10;99.90
16999;DHT22;10211;49.476;11.010;2023-02-28T07:35:14;0.00;99.90
16999;DHT22;10211;49.476;11.010;2023-02-28T07:37:41;0.40;99.90
16999;DHT22;10211;49.476;11.010;2023-02-28T07:40:10;1.20;99.90
16999;DHT22;10211;49.476;11.010;2023-02-28T07:42:38;1.90;99.90
16999;DHT22;10211;49.476;11.010;2023-02-28T07:45:05;2.50;99.90
16999;DHT22;10211;49.476;11.010;2023-02-28T07:47:32;2.90;99.90
16999;DHT22;10211;49.476;11.010;2023-02-28T07:50:00;3.70;99.90
16999;DHT22;10211;49.476;11.010;2023-02-28T07:52:27;4.70;99.60
16999;DHT22;10211;49.476;11.010;2023-02-28T07:54:54;5.80;95.20
16999;DHT22;10211;49.476;11.010;2023-02-28T07:57:22;6.50;91.70
16999;DHT22;10211;49.476;11.010;2023-02-28T07:59:48;6.30;89.20
16999;DHT22;10211;49.476;11.010;2023-02-28T08:02:17;5.90;89.00
16999;DHT22;10211;49.476;11.010;2023-02-28T08:04:44;6.20;89.00
16999;DHT22;10211;49.476;11.010;2023-02-28T08:07:14;6.90;86.00
16999;DHT22;10211;49.476;11.010;2023-02-28T08:09:41;8.50;81.40
16999;DHT22;10211;49.476;11.010;2023-02-28T08:12:09;9.60;76.50
16999;DHT22;10211;49.476;11.010;2023-02-28T08:14:37;10.50;71.40
16999;DHT22;10211;49.476;11.010;2023-02-28T08:17:05;9.80;68.70
16999;DHT22;10211;49.476;11.010;2023-02-28T08:19:32;9.80;69.80
16999;DHT22;10211;49.476;11.010;2023-02-28T08:21:59;9.70;68.70
16999;DHT22;10211;49.476;11.010;2023-02-28T08:24:27;9.20;67.50
16999;DHT22;10211;49.476;11.010;2023-02-28T08:26:54;7.90;69.30
16999;DHT22;10211;49.476;11.010;2023-02-28T08:29:21;7.20;72.10
16999;DHT22;10211;49.476;11.010;2023-02-28T08:31:48;6.60;73.40
16999;DHT22;10211;49.476;11.010;2023-02-28T08:34:15;5.50;75.50
16999;DHT22;10211;49.476;11.010;2023-02-28T08:36:42;4.60;78.30
16999;DHT22;10211;49.476;11.010;2023-02-28T08:39:10;3.80;81.50
16999;DHT22;10211;49.476;11.010;2023-02-28T08:41:39;3.20;83.50
16999;DHT22;10211;49.476;11.010;2023-02-28T08:44:06;2.90;85.70
16999;DHT22;10211;49.476;11.010;2023-02-28T08:46:33;2.90;86.00
16999;DHT22;10211;49.476;11.010;2023-02-28T08:49:00;2.50;86.30
16999;DHT22;10211;49.476;11.010;2023-02-28T08:51:28;2.30;87.20
16999;DHT22;10211;49.476;11.010;2023-02-28T08:53:57;2.20;88.20
16999;DHT22;10211;49.476;11.010;2023-02-28T08:56:25;2.10;89.10
16999;DHT22;10211;49.476;11.010;2023-02-28T08:58:55;2.00;90.10
16999;DHT22;10211;49.476;11.010;2023-02-28T09:01:23;2.10;90.20
16999;DHT22;10211;49.476;11.010;2023-02-28T09:03:51;2.10;90.20
16999;DHT22;10211;49.476;11.010;2023-02-28T09:06:19;2.00;89.20
16999;DHT22;10211;49.476;11.010;2023-02-28T09:08:46;1.90;90.10
16999;DHT22;10211;49.476;11.010;2023-02-28T09:11:14;2.00;90.50
16999;DHT22;10211;49.476;11.010;2023-02-28T09:13:40;2.00;90.30
16999;DHT22;10211;49.476;11.010;2023-02-28T09:16:11;2.00;90.00
16999;DHT22;10211;49.476;11.010;2023-02-28T09:18:39;2.00;90.00
16999;DHT22;10211;49.476;11.010;2023-02-28T09:21:06;2.10;90.30
16999;DHT22;10211;49.476;11.010;2023-02-28T09:23:33;2.10;90.20
16999;DHT22;10211;49.476;11.010;2023-02-28T09:26:00;2.10;90.00
16999;DHT22;10211;49.476;11.010;2023-02-28T09:28:27;2.10;90.20
16999;DHT22;10211;49.476;11.010;2023-02-28T09:30:54;2.10;90.30
16999;DHT22;10211;49.476;11.010;2023-02-28T09:33:24;2.20;90.20
16999;DHT22;10211;49.476;11.010;2023-02-28T09:35:57;2.30;90.30
16999;DHT22;10211;49.476;11.010;2023-02-28T09:38:25;2.40;90.10
16999;DHT22;10211;49.476;11.010;2023-02-28T09:40:53;2.40;90.40
16999;DHT22;10211;49.476;11.010;2023-02-28T09:43:24;2.50;90.30
16999;DHT22;10211;49.476;11.010;2023-02-28T09:45:56;2.60;90.00
16999;DHT22;10211;49.476;11.010;2023-02-28T09:48:31;2.70;89.90
16999;DHT22;10211;49.476;11.010;2023-02-28T09:51:02;2.70;89.20
16999;DHT22;10211;49.476;11.010;2023-02-28T09:53:31;2.70;87.90
16999;DHT22;10211;49.476;11.010;2023-02-28T09:56:02;2.60;88.00
16999;DHT22;10211;49.476;11.010;2023-02-28T09:58:34;2.50;88.80
16999;DHT22;10211;49.476;11.010;2023-02-28T10:01:09;2.60;89.30
16999;DHT22;10211;49.476;11.010;2023-02-28T10:03:43;2.80;88.20
16999;DHT22;10211;49.476;11.010;2023-02-28T10:06:16;2.90;87.70
16999;DHT22;10211;49.476;11.010;2023-02-28T10:08:48;2.90;87.20
16999;DHT22;10211;49.476;11.010;2023-02-28T10:11:18;3.00;87.00
16999;DHT22;10211;49.476;11.010;2023-02-28T10:13:51;3.00;86.40
16999;DHT22;10211;49.476;11.010;2023-02-28T10:16:24;2.90;85.80
16999;DHT22;10211;49.476;11.010;2023-02-28T10:18:56;3.10;86.80
16999;DHT22;10211;49.476;11.010;2023-02-28T10:21:28;3.10;85.50
16999;DHT22;10211;49.476;11.010;2023-02-28T10:24:03;3.20;85.70
16999;DHT22;10211;49.476;11.010;2023-02-28T10:26:32;3.50;85.40
16999;DHT22;10211;49.476;11.010;2023-02-28T10:28:59;3.70;84.80
16999;DHT22;10211;49.476;11.010;2023-02-28T10:31:26;3.90;84.60
16999;DHT22;10211;49.476;11.010;2023-02-28T10:33:55;3.90;84.00
16999;DHT22;10211;49.476;11.010;2023-02-28T10:36:22;4.20;83.10
16999;DHT22;10211;49.476;11.010;2023-02-28T10:38:48;4.60;81.70
16999;DHT22;10211;49.476;11.010;2023-02-28T10:41:26;6.70;79.30
16999;DHT22;10211;49.476;11.010;2023-02-28T10:44:13;9.60;71.90
16999;DHT22;10211;49.476;11.010;2023-02-28T10:46:40;12.00;64.30
16999;DHT22;10211;49.476;11.010;2023-02-28T10:49:13;13.70;57.80
16999;DHT22;10211;49.476;11.010;2023-02-28T10:51:41;14.20;55.20
16999;DHT22;10211;49.476;11.010;2023-02-28T10:54:15;15.10;52.60
16999;DHT22;10211;49.476;11.010;2023-02-28T10:56:43;15.50;50.80
16999;DHT22;10211;49.476;11.010;2023-02-28T10:59:26;15.50;50.20
16999;DHT22;10211;49.476;11.010;2023-02-28T11:01:53;16.70;48.50
16999;DHT22;10211;49.476;11.010;2023-02-28T11:04:33;16.30;46.40
16999;DHT22;10211;49.476;11.010;2023-02-28T11:07:04;16.40;46.30
16999;DHT22;10211;49.476;11.010;2023-02-28T11:09:33;17.20;46.70
16999;DHT22;10211;49.476;11.010;2023-02-28T11:12:02;17.60;43.70
16999;DHT22;10211;49.476;11.010;2023-02-28T11:14:31;17.80;44.30
16999;DHT22;10211;49.476;11.010;2023-02-28T11:17:11;17.30;44.10
16999;DHT22;10211;49.476;11.010;2023-02-28T11:19:44;17.00;43.80
16999;DHT22;10211;49.476;11.010;2023-02-28T11:22:11;16.40;44.70
16999;DHT22;10211;49.476;11.010;2023-02-28T11:24:45;16.70;43.90
16999;DHT22;10211;49.476;11.010;2023-02-28T11:27:26;17.30;43.00
16999;DHT22;10211;49.476;11.010;2023-02-28T11:29:53;18.00;43.10
16999;DHT22;10211;49.476;11.010;2023-02-28T11:32:21;18.80;42.00
16999;DHT22;10211;49.476;11.010;2023-02-28T11:35:04;19.70;40.70
16999;DHT22;10211;49.476;11.010;2023-02-28T11:37:41;20.30;39.90
16999;DHT22;10211;49.476;11.010;2023-02-28T11:40:13;20.70;38.80
16999;DHT22;10211;49.476;11.010;2023-02-28T11:42:53;20.00;38.10
16999;DHT22;10211;49.476;11.010;2023-02-28T11:45:37;19.70;38.10
16999;DHT22;10211;49.476;11.010;2023-02-28T11:48:15;19.40;40.00
16999;DHT22;10211;49.476;11.010;2023-02-28T11:50:52;20.00;39.20
16999;DHT22;10211;49.476;11.010;2023-02-28T11:53:37;20.30;39.20
16999;DHT22;10211;49.476;11.010;2023-02-28T11:56:10;19.60;38.30
16999;DHT22;10211;49.476;11.010;2023-02-28T11:58:49;18.10;40.70
16999;DHT22;10211;49.476;11.010;2023-02-28T12:01:29;16.20;42.90
16999;DHT22;10211;49.476;11.010;2023-02-28T12:04:02;15.60;43.20
16999;DHT22;10211;49.476;11.010;2023-02-28T12:06:36;15.00;44.90
16999;DHT22;10211;49.476;11.010;2023-02-28T12:09:32;14.00;46.30
16999;DHT22;10211;49.476;11.010;2023-02-28T12:12:04;13.50;46.40
16999;DHT22;10211;49.476;11.010;2023-02-28T12:14:58;13.30;47.80
16999;DHT22;10211;49.476;11.010;2023-02-28T12:17:39;12.80;48.60
16999;DHT22;10211;49.476;11.010;2023-02-28T12:20:17;12.90;48.80
16999;DHT22;10211;49.476;11.010;2023-02-28T12:22:55;12.60;49.20
16999;DHT22;10211;49.476;11.010;2023-02-28T12:25:48;11.30;49.90
16999;DHT22;10211;49.476;11.010;2023-02-28T12:28:21;10.50;52.80
16999;DHT22;10211;49.476;11.010;2023-02-28T12:30:54;10.20;53.50
16999;DHT22;10211;49.476;11.010;2023-02-28T12:33:26;10.00;53.80
16999;DHT22;10211;49.476;11.010;2023-02-28T12:35:56;10.20;53.50
16999;DHT22;10211;49.476;11.010;2023-02-28T12:38:28;10.90;52.60
16999;DHT22;10211;49.476;11.010;2023-02-28T12:40:59;11.60;51.70
16999;DHT22;10211;49.476;11.010;2023-02-28T12:43:32;11.70;50.50
16999;DHT22;10211;49.476;11.010;2023-02-28T12:46:02;11.20;51.10
16999;DHT22;10211;49.476;11.010;2023-02-28T12:48:37;10.90;52.50
16999;DHT22;10211;49.476;11.010;2023-02-28T12:51:06;10.30;52.70
16999;DHT22;10211;49.476;11.010;2023-02-28T12:53:57;10.00;54.10
16999;DHT22;10211;49.476;11.010;2023-02-28T12:56:33;9.70;54.40
16999;DHT22;10211;49.476;11.010;2023-02-28T12:59:06;9.80;54.40
16999;DHT22;10211;49.476;11.010;2023-02-28T13:01:49;10.00;54.50
16999;DHT22;10211;49.476;11.010;2023-02-28T13:04:43;10.10;53.90
16999;DHT22;10211;49.476;11.010;2023-02-28T13:10:15;10.40;54.40
16999;DHT22;10211;49.476;11.010;2023-02-28T13:12:48;10.90;53.30
16999;DHT22;10211;49.476;11.010;2023-02-28T13:15:18;11.20;52.80
16999;DHT22;10211;49.476;11.010;2023-02-28T13:17:48;11.70;52.20
16999;DHT22;10211;49.476;11.010;2023-02-28T13:20:17;12.20;51.10
16999;DHT22;10211;49.476;11.010;2023-02-28T13:22:45;12.10;50.60
16999;DHT22;10211;49.476;11.010;2023-02-28T13:31:41;12.80;49.20
16999;DHT22;10211;49.476;11.010;2023-02-28T13:34:27;13.00;49.50
16999;DHT22;10211;49.476;11.010;2023-02-28T13:37:32;12.70;50.00
16999;DHT22;10211;49.476;11.010;2023-02-28T13:40:27;12.80;50.70
16999;DHT22;10211;49.476;11.010;2023-02-28T13:42:54;12.60;50.70
16999;DHT22;10211;49.476;11.010;2023-02-28T13:45:26;11.80;50.80
16999;DHT22;10211;49.476;11.010;2023-02-28T13:47:59;11.40;52.50
16999;DHT22;10211;49.476;11.010;2023-02-28T13:50:30;11.10;52.90
16999;DHT22;10211;49.476;11.010;2023-02-28T13:56:07;10.30;55.00
16999;DHT22;10211;49.476;11.010;2023-02-28T13:58:43;10.00;55.00
16999;DHT22;10211;49.476;11.010;2023-02-28T14:01:33;9.80;55.10
16999;DHT22;10211;49.476;11.010;2023-02-28T14:07:23;9.50;56.50
16999;DHT22;10211;49.476;11.010;2023-02-28T14:10:03;9.20;56.80
16999;DHT22;10211;49.476;11.010;2023-02-28T14:12:59;9.10;57.20
16999;DHT22;10211;49.476;11.010;2023-02-28T14:15:36;8.80;57.90
16999;DHT22;10211;49.476;11.010;2023-02-28T14:18:14;8.70;58.80
16999;DHT22;10211;49.476;11.010;2023-02-28T14:20:44;8.50;58.50
16999;DHT22;10211;49.476;11.010;2023-02-28T14:23:17;8.30;59.50
16999;DHT22;10211;49.476;11.010;2023-02-28T14:25:54;7.80;59.40
16999;DHT22;10211;49.476;11.010;2023-02-28T14:28:47;7.30;61.10
16999;DHT22;10211;49.476;11.010;2023-02-28T14:31:21;7.00;62.10
16999;DHT22;10211;49.476;11.010;2023-02-28T14:34:21;6.70;62.80
16999;DHT22;10211;49.476;11.010;2023-02-28T14:36:54;6.30;63.80
16999;DHT22;10211;49.476;11.010;2023-02-28T14:39:26;6.20;64.80
16999;DHT22;10211;49.476;11.010;2023-02-28T14:41:56;6.00;65.20
16999;DHT22;10211;49.476;11.010;2023-02-28T14:44:26;5.90;66.00
16999;DHT22;10211;49.476;11.010;2023-02-28T14:46:55;5.80;65.50
16999;DHT22;10211;49.476;11.010;2023-02-28T14:49:26;5.70;66.30
16999;DHT22;10211;49.476;11.010;2023-02-28T14:52:06;5.70;66.80
16999;DHT22;10211;49.476;11.010;2023-02-28T14:54:35;5.60;67.00
16999;DHT22;10211;49.476;11.010;2023-02-28T14:57:02;5.60;67.20
16999;DHT22;10211;49.476;11.010;2023-02-28T14:59:31;5.60;67.10
16999;DHT22;10211;49.476;11.010;2023-02-28T15:02:18;5.50;67.20
16999;DHT22;10211;49.476;11.010;2023-02-28T15:04:53;5.50;67.50
16999;DHT22;10211;49.476;11.010;2023-02-28T15:07:21;5.50;67.60
16999;DHT22;10211;49.476;11.010;2023-02-28T15:10:07;5.40;68.30
16999;DHT22;10211;49.476;11.010;2023-02-28T15:12:35;5.40;67.70
16999;DHT22;10211;49.476;11.010;2023-02-28T15:15:02;5.40;68.00
16999;DHT22;10211;49.476;11.010;2023-02-28T15:17:29;5.40;68.40
16999;DHT22;10211;49.476;11.010;2023-02-28T15:19:57;5.30;67.40
16999;DHT22;10211;49.476;11.010;2023-02-28T15:22:28;5.30;67.70
16999;DHT22;10211;49.476;11.010;2023-02-28T15:24:56;5.30;68.10
16999;DHT22;10211;49.476;11.010;2023-02-28T15:27:26;5.20;68.50
16999;DHT22;10211;49.476;11.010;2023-02-28T15:29:55;5.20;69.00
16999;DHT22;10211;49.476;11.010;2023-02-28T15:32:28;5.20;68.90
16999;DHT22;10211;49.476;11.010;2023-02-28T15:34:56;5.20;69.00
16999;DHT22;10211;49.476;11.010;2023-02-28T15:37:39;5.20;69.70
16999;DHT22;10211;49.476;11.010;2023-02-28T15:40:13;5.20;69.60
16999;DHT22;10211;49.476;11.010;2023-02-28T15:42:42;5.10;69.50
16999;DHT22;10211;49.476;11.010;2023-02-28T15:45:28;5.10;70.00
16999;DHT22;10211;49.476;11.010;2023-02-28T15:47:55;5.00;70.40
16999;DHT22;10211;49.476;11.010;2023-02-28T15:50:22;5.00;70.70
16999;DHT22;10211;49.476;11.010;2023-02-28T15:52:51;4.90;70.90
16999;DHT22;10211;49.476;11.010;2023-02-28T15:55:21;5.00;70.90
16999;DHT22;10211;49.476;11.010;2023-02-28T15:57:51;4.90;70.90
16999;DHT22;10211;49.476;11.010;2023-02-28T16:00:22;4.90;71.00
16999;DHT22;10211;49.476;11.010;2023-02-28T16:02:50;4.80;71.60
16999;DHT22;10211;49.476;11.010;2023-02-28T16:05:20;4.70;71.50